createdAt,value
2023-05-01T00:01:50.535Z,12.81
2023-05-01T00:03:55.430Z,12.80
2023-05-01T00:06:04.997Z,12.79
2023-05-01T00:08:10.162Z,12.79
2023-05-01T00:10:14.838Z,12.80
2023-05-01T00:12:22.450Z,12.76
2023-05-01T00:14:27.036Z,12.76
2023-05-01T00:16:36.839Z,12.76
2023-05-01T00:18:42.370Z,12.78
2023-05-01T00:20:47.026Z,12.74
2023-05-01T00:22:53.830Z,12.73
2023-05-01T00:24:58.471Z,12.72
2023-05-01T00:27:03.369Z,12.68
2023-05-01T00:29:10.586Z,12.63
2023-05-01T00:31:15.700Z,12.59
2023-05-01T00:33:20.397Z,12.55
2023-05-01T00:35:25.445Z,12.50
2023-05-01T00:37:30.077Z,12.44
2023-05-01T00:39:34.706Z,12.43
2023-05-01T00:41:39.636Z,12.40
2023-05-01T00:43:44.210Z,12.34
2023-05-01T00:45:54.020Z,12.31
2023-05-01T00:47:59.215Z,12.26
2023-05-01T00:50:04.216Z,12.22
2023-05-01T00:52:10.099Z,12.21
2023-05-01T00:54:14.794Z,12.21
2023-05-01T00:56:19.513Z,12.19
2023-05-01T00:58:24.145Z,12.09
2023-05-01T01:00:29.729Z,12.10
2023-05-01T01:02:37.385Z,12.06
2023-05-01T01:04:43.404Z,12.05
2023-05-01T01:06:52.259Z,12.05
2023-05-01T01:09:07.965Z,12.08
2023-05-01T01:11:18.059Z,12.07
2023-05-01T01:13:26.311Z,12.08
2023-05-01T01:15:34.921Z,12.09
2023-05-01T01:17:47.794Z,12.13
2023-05-01T01:20:06.768Z,12.13
2023-05-01T01:22:13.735Z,12.10
2023-05-01T01:24:34.170Z,12.04
2023-05-01T01:26:55.361Z,12.00
2023-05-01T01:29:27.335Z,12.00
2023-05-01T01:31:37.405Z,11.94
2023-05-01T01:34:04.399Z,11.93
2023-05-01T01:36:11.989Z,11.87
2023-05-01T01:38:19.559Z,11.86
2023-05-01T01:40:27.301Z,11.80
2023-05-01T01:42:40.619Z,11.81
2023-05-01T01:44:51.072Z,11.80
2023-05-01T01:46:57.229Z,11.79
2023-05-01T01:49:07.267Z,11.78
2023-05-01T01:51:23.726Z,11.76
2023-05-01T01:53:29.473Z,11.71
2023-05-01T01:55:36.104Z,11.74
2023-05-01T01:57:43.302Z,11.75
2023-05-01T01:59:49.761Z,11.73
2023-05-01T02:01:56.532Z,11.65
2023-05-01T02:04:06.285Z,11.65
2023-05-01T02:06:11.361Z,11.66
2023-05-01T02:08:16.884Z,11.61
2023-05-01T02:10:22.969Z,11.54
2023-05-01T02:12:28.707Z,11.51
2023-05-01T02:14:34.959Z,11.52
2023-05-01T02:16:41.060Z,11.50
2023-05-01T02:18:46.708Z,11.43
2023-05-01T02:20:55.324Z,11.43
2023-05-01T02:23:01.061Z,11.42
2023-05-01T02:25:07.248Z,11.42
2023-05-01T02:27:15.230Z,11.40
2023-05-01T02:29:19.944Z,11.42
2023-05-01T02:31:24.661Z,11.45
2023-05-01T02:33:29.306Z,11.43
2023-05-01T02:35:33.992Z,11.41
2023-05-01T02:37:41.474Z,11.36
2023-05-01T02:39:46.623Z,11.34
2023-05-01T02:41:52.650Z,11.36
2023-05-01T02:44:01.476Z,11.28
2023-05-01T02:46:07.105Z,11.27
2023-05-01T02:48:14.041Z,11.29
2023-05-01T02:50:22.113Z,11.32
2023-05-01T02:52:27.825Z,11.29
2023-05-01T02:54:47.663Z,11.27
2023-05-01T02:56:52.497Z,11.28
2023-05-01T02:58:57.395Z,11.26
2023-05-01T03:01:02.115Z,11.19
2023-05-01T03:03:07.026Z,11.17
2023-05-01T03:05:12.424Z,11.18
2023-05-01T03:07:17.829Z,11.13
2023-05-01T03:09:22.509Z,11.11
2023-05-01T03:11:29.709Z,11.10
2023-05-01T03:13:34.356Z,11.09
2023-05-01T03:15:38.969Z,11.07
2023-05-01T03:17:43.680Z,11.05
2023-05-01T03:19:49.232Z,11.02
2023-05-01T03:21:53.872Z,11.03
2023-05-01T03:23:58.465Z,11.03
2023-05-01T03:26:03.144Z,11.05
2023-05-01T03:28:10.351Z,11.07
2023-05-01T03:30:16.132Z,11.08
2023-05-01T03:32:21.748Z,11.09
2023-05-01T03:34:27.642Z,11.09
2023-05-01T03:36:34.035Z,11.08
2023-05-01T03:38:39.166Z,11.07
2023-05-01T03:40:49.336Z,11.05
2023-05-01T03:43:19.101Z,11.05
2023-05-01T03:45:23.928Z,10.96
2023-05-01T03:47:29.211Z,10.91
2023-05-01T03:49:33.944Z,10.88
2023-05-01T03:51:38.651Z,10.81
2023-05-01T03:53:43.351Z,10.81
2023-05-01T03:55:48.110Z,10.74
2023-05-01T03:57:52.901Z,10.73
2023-05-01T04:00:01.178Z,10.72
2023-05-01T04:02:09.181Z,10.73
2023-05-01T04:04:15.796Z,10.74
2023-05-01T04:06:24.824Z,10.74
2023-05-01T04:08:29.601Z,10.74
2023-05-01T04:10:34.391Z,10.71
2023-05-01T04:12:44.811Z,10.72
2023-05-01T04:14:49.763Z,10.73
2023-05-01T04:16:57.820Z,10.71
2023-05-01T04:19:02.691Z,10.71
2023-05-01T04:21:09.114Z,10.74
2023-05-01T04:23:17.046Z,10.73
2023-05-01T04:25:21.828Z,10.71
2023-05-01T04:27:28.611Z,10.67
2023-05-01T04:29:33.220Z,10.62
2023-05-01T04:31:38.129Z,10.65
2023-05-01T04:33:45.744Z,10.63
2023-05-01T04:35:50.871Z,10.59
2023-05-01T04:37:55.592Z,10.58
2023-05-01T04:40:01.007Z,10.58
2023-05-01T04:42:05.848Z,10.58
2023-05-01T04:44:11.019Z,10.59
2023-05-01T04:46:15.772Z,10.58
2023-05-01T04:48:21.109Z,10.56
2023-05-01T04:50:28.471Z,10.61
2023-05-01T04:52:33.206Z,10.63
2023-05-01T04:54:42.128Z,10.70
2023-05-01T04:56:46.972Z,10.76
2023-05-01T04:58:53.632Z,10.85
2023-05-01T05:01:01.067Z,10.87
2023-05-01T05:03:05.975Z,10.84
2023-05-01T05:05:11.219Z,10.90
2023-05-01T05:07:18.497Z,10.97
2023-05-01T05:09:41.832Z,11.06
2023-05-01T05:11:46.511Z,11.06
2023-05-01T05:13:58.462Z,11.07
2023-05-01T05:16:03.692Z,11.10
2023-05-01T05:18:09.338Z,11.07
2023-05-01T05:20:14.337Z,11.08
2023-05-01T05:22:21.741Z,11.09
2023-05-01T05:24:49.260Z,11.20
2023-05-01T05:26:55.084Z,11.19
2023-05-01T05:28:59.799Z,11.22
2023-05-01T05:31:05.036Z,11.25
2023-05-01T05:33:10.802Z,11.34
2023-05-01T05:35:16.189Z,11.38
2023-05-01T05:37:24.512Z,11.39
2023-05-01T05:39:30.768Z,11.51
2023-05-01T05:41:36.322Z,11.49
2023-05-01T05:43:41.111Z,11.53
2023-05-01T05:45:46.698Z,11.53
2023-05-01T05:47:52.843Z,11.62
2023-05-01T05:49:57.946Z,11.68
2023-05-01T05:52:03.209Z,11.76
2023-05-01T05:54:10.756Z,11.77
2023-05-01T05:56:15.895Z,11.87
2023-05-01T05:58:20.736Z,11.86
2023-05-01T06:00:26.982Z,11.94
2023-05-01T06:02:33.102Z,11.98
2023-05-01T06:04:37.811Z,12.07
2023-05-01T06:06:42.898Z,12.14
2023-05-01T06:08:47.647Z,12.21
2023-05-01T06:10:55.553Z,12.18
2023-05-01T06:13:07.056Z,12.24
2023-05-01T06:15:23.118Z,12.31
2023-05-01T06:17:31.711Z,12.47
2023-05-01T06:19:36.439Z,12.60
2023-05-01T06:21:45.696Z,12.63
2023-05-01T06:23:50.780Z,12.74
2023-05-01T06:26:08.246Z,12.82
2023-05-01T06:28:13.011Z,12.89
2023-05-01T06:30:19.979Z,12.95
2023-05-01T06:32:24.724Z,13.00
2023-05-01T06:34:29.491Z,12.98
2023-05-01T06:36:34.275Z,12.98
2023-05-01T06:38:45.019Z,13.02
2023-05-01T06:40:53.851Z,13.10
2023-05-01T06:43:01.117Z,13.29
2023-05-01T06:45:06.642Z,13.44
2023-05-01T06:47:11.570Z,13.50
2023-05-01T06:49:18.209Z,13.49
2023-05-01T06:51:23.353Z,13.50
2023-05-01T06:53:27.989Z,13.48
2023-05-01T06:55:34.553Z,13.57
2023-05-01T06:57:40.660Z,13.56
2023-05-01T06:59:47.932Z,13.61
2023-05-01T07:01:52.660Z,13.62
2023-05-01T07:03:57.363Z,13.72
2023-05-01T07:06:02.063Z,13.71
2023-05-01T07:08:06.892Z,13.82
2023-05-01T07:10:11.863Z,13.87
2023-05-01T07:12:16.529Z,13.98
2023-05-01T07:14:21.128Z,14.09
2023-05-01T07:16:28.429Z,14.15
2023-05-01T07:18:33.160Z,14.16
2023-05-01T07:20:37.790Z,14.19
2023-05-01T07:22:51.764Z,14.25
2023-05-01T07:24:56.382Z,14.34
2023-05-01T07:27:01.019Z,14.36
2023-05-01T07:29:05.708Z,14.43
2023-05-01T07:31:12.479Z,14.46
2023-05-01T07:33:19.765Z,14.46
2023-05-01T07:35:24.570Z,14.53
2023-05-01T07:37:29.550Z,14.65
2023-05-01T07:39:34.241Z,14.80
2023-05-01T07:41:38.826Z,14.86
2023-05-01T07:43:43.483Z,15.04
2023-05-01T07:45:57.453Z,15.22
2023-05-01T07:48:02.350Z,15.40
2023-05-01T07:50:12.550Z,15.45
2023-05-01T07:52:17.353Z,15.56
2023-05-01T07:54:22.509Z,15.70
2023-05-01T07:56:27.490Z,15.80
2023-05-01T07:58:32.243Z,15.87
2023-05-01T08:00:37.844Z,15.91
2023-05-01T08:02:43.799Z,16.10
2023-05-01T08:04:49.122Z,16.19
2023-05-01T08:06:56.491Z,16.11
2023-05-01T08:09:01.173Z,16.09
2023-05-01T08:11:05.977Z,16.14
2023-05-01T08:13:10.662Z,16.14
2023-05-01T08:15:15.274Z,16.15
2023-05-01T08:17:20.486Z,16.09
2023-05-01T08:19:25.413Z,16.05
2023-05-01T08:21:30.063Z,16.23
2023-05-01T08:23:37.393Z,16.40
2023-05-01T08:25:42.081Z,16.53
2023-05-01T08:27:46.738Z,16.66
2023-05-01T08:29:51.698Z,16.67
2023-05-01T08:31:56.430Z,16.67
2023-05-01T08:34:01.216Z,16.57
2023-05-01T08:36:05.874Z,16.57
2023-05-01T08:38:10.501Z,16.61
2023-05-01T08:40:17.852Z,16.62
2023-05-01T08:42:22.537Z,16.65
2023-05-01T08:44:28.206Z,16.72
2023-05-01T08:46:41.489Z,16.75
2023-05-01T08:48:47.146Z,16.77
2023-05-01T08:50:52.543Z,16.57
2023-05-01T08:52:58.814Z,16.48
2023-05-01T08:55:03.717Z,16.61
2023-05-01T08:57:11.894Z,16.58
2023-05-01T08:59:17.791Z,16.65
2023-05-01T09:01:23.212Z,16.65
2023-05-01T09:03:29.924Z,16.61
2023-05-01T09:05:35.975Z,16.72
2023-05-01T09:07:41.011Z,16.77
2023-05-01T09:09:46.680Z,16.85
2023-05-01T09:11:51.613Z,16.95
2023-05-01T09:13:59.075Z,17.09
2023-05-01T09:16:03.823Z,17.17
2023-05-01T09:18:10.434Z,17.28
2023-05-01T09:20:15.235Z,17.37
2023-05-01T09:22:20.984Z,17.39
2023-05-01T09:24:26.890Z,17.50
2023-05-01T09:26:31.522Z,17.57
2023-05-01T09:28:45.130Z,17.63
2023-05-01T09:30:52.511Z,17.49
2023-05-01T09:33:06.910Z,17.57
2023-05-01T09:35:15.198Z,17.56
2023-05-01T09:37:28.615Z,17.61
2023-05-01T09:39:33.326Z,17.57
2023-05-01T09:41:37.969Z,17.53
2023-05-01T09:43:44.071Z,17.48
2023-05-01T09:46:02.121Z,17.44
2023-05-01T09:48:14.315Z,17.52
2023-05-01T09:50:31.407Z,17.61
2023-05-01T09:52:36.131Z,17.69
2023-05-01T09:54:40.748Z,17.69
2023-05-01T09:56:49.535Z,17.70
2023-05-01T09:58:54.859Z,17.63
2023-05-01T10:01:02.164Z,17.70
2023-05-01T10:03:16.147Z,17.74
2023-05-01T10:05:21.271Z,17.74
2023-05-01T10:07:25.945Z,17.73
2023-05-01T10:09:33.443Z,17.72
2023-05-01T10:11:52.784Z,17.71
2023-05-01T10:14:08.975Z,17.72
2023-05-01T10:16:28.449Z,17.66
2023-05-01T10:18:37.693Z,17.59
2023-05-01T10:20:45.778Z,17.53
2023-05-01T10:22:50.724Z,17.40
2023-05-01T10:24:55.985Z,17.44
2023-05-01T10:27:00.945Z,17.47
2023-05-01T10:29:06.161Z,17.38
2023-05-01T10:31:11.527Z,17.26
2023-05-01T10:33:16.530Z,16.92
2023-05-01T10:35:27.189Z,16.77
2023-05-01T10:37:37.475Z,16.55
2023-05-01T10:39:44.794Z,16.40
2023-05-01T10:42:11.133Z,15.88
2023-05-01T10:44:25.784Z,15.59
2023-05-01T10:46:30.787Z,15.46
2023-05-01T10:48:53.497Z,15.40
2023-05-01T10:51:13.677Z,15.40
2023-05-01T10:53:21.446Z,15.46
2023-05-01T10:55:35.503Z,15.51
2023-05-01T10:57:47.052Z,15.32
2023-05-01T11:00:06.671Z,15.17
2023-05-01T11:02:26.532Z,14.78
2023-05-01T11:04:47.538Z,14.42
2023-05-01T11:07:08.022Z,14.20
2023-05-01T11:09:39.917Z,13.99
2023-05-01T11:11:56.137Z,14.19
2023-05-01T11:14:01.018Z,14.38
2023-05-01T11:16:40.843Z,14.37
2023-05-01T11:18:49.264Z,14.31
2023-05-01T11:20:53.949Z,14.13
2023-05-01T11:22:59.306Z,14.05
2023-05-01T11:25:04.749Z,13.82
2023-05-01T11:27:15.981Z,13.67
2023-05-01T11:29:20.918Z,13.55
2023-05-01T11:31:25.720Z,13.45
2023-05-01T11:33:30.669Z,13.37
2023-05-01T11:35:35.663Z,13.52
2023-05-01T11:37:44.540Z,13.57
2023-05-01T11:39:53.411Z,13.49
2023-05-01T11:42:09.284Z,13.55
2023-05-01T11:44:18.274Z,13.50
2023-05-01T11:46:27.767Z,13.42
2023-05-01T11:48:33.092Z,13.33
2023-05-01T11:50:40.601Z,13.41
2023-05-01T11:52:46.991Z,13.46
2023-05-01T11:54:54.045Z,13.52
2023-05-01T11:57:02.661Z,13.60
2023-05-01T11:59:15.856Z,13.54
2023-05-01T12:01:23.160Z,13.43
2023-05-01T12:03:28.645Z,13.47
2023-05-01T12:05:35.700Z,13.49
2023-05-01T12:07:40.695Z,13.49
2023-05-01T12:09:45.428Z,13.44
2023-05-01T12:11:52.408Z,13.29
2023-05-01T12:13:57.740Z,13.35
2023-05-01T12:16:03.554Z,13.24
2023-05-01T12:18:11.496Z,13.24
2023-05-01T12:20:16.153Z,13.28
2023-05-01T12:22:20.811Z,13.41
2023-05-01T12:24:25.428Z,13.51
2023-05-01T12:26:30.117Z,13.52
2023-05-01T12:28:34.741Z,13.78
2023-05-01T12:30:39.938Z,14.02
2023-05-01T12:32:44.641Z,14.15
2023-05-01T12:34:54.173Z,14.12
2023-05-01T12:36:58.896Z,14.08
2023-05-01T12:39:04.564Z,14.07
2023-05-01T12:41:12.236Z,14.13
2023-05-01T12:43:17.107Z,14.24
2023-05-01T12:45:21.747Z,14.35
2023-05-01T12:47:26.424Z,14.44
2023-05-01T12:49:31.841Z,14.55
2023-05-01T12:51:42.470Z,14.58
2023-05-01T12:53:47.327Z,14.53
2023-05-01T12:55:52.960Z,14.48
2023-05-01T12:57:57.796Z,14.60
2023-05-01T13:00:03.208Z,14.65
2023-05-01T13:02:08.625Z,14.84
2023-05-01T13:04:13.605Z,14.83
2023-05-01T13:06:18.325Z,14.86
2023-05-01T13:08:32.486Z,14.73
2023-05-01T13:10:37.202Z,14.53
2023-05-01T13:12:47.613Z,14.54
2023-05-01T13:14:53.084Z,14.44
2023-05-01T13:16:57.926Z,14.50
2023-05-01T13:19:05.886Z,14.39
2023-05-01T13:21:12.346Z,14.46
2023-05-01T13:23:19.822Z,14.49
2023-05-01T13:25:27.479Z,14.47
2023-05-01T13:27:32.628Z,14.56
2023-05-01T13:29:39.842Z,14.64
2023-05-01T13:31:45.892Z,14.76
2023-05-01T13:33:53.673Z,14.88
2023-05-01T13:35:59.555Z,14.83
2023-05-01T13:38:06.410Z,14.82
2023-05-01T13:40:12.051Z,14.85
2023-05-01T13:42:23.471Z,15.05
2023-05-01T13:44:29.453Z,15.17
2023-05-01T13:46:34.388Z,15.19
2023-05-01T13:48:39.188Z,15.23
2023-05-01T13:50:49.845Z,15.32
2023-05-01T13:52:55.753Z,15.32
2023-05-01T13:55:06.021Z,15.49
2023-05-01T13:57:11.007Z,15.51
2023-05-01T13:59:18.363Z,15.67
2023-05-01T14:01:23.708Z,15.82
2023-05-01T14:03:28.874Z,15.85
2023-05-01T14:05:33.511Z,15.79
2023-05-01T14:07:42.815Z,15.78
2023-05-01T14:09:48.420Z,15.81
2023-05-01T14:11:54.190Z,15.82
2023-05-01T14:14:01.788Z,15.78
2023-05-01T14:16:13.417Z,15.73
2023-05-01T14:18:19.733Z,15.80
2023-05-01T14:20:27.855Z,15.82
2023-05-01T14:22:32.587Z,15.91
2023-05-01T14:24:38.710Z,15.97
2023-05-01T14:26:46.797Z,15.98
2023-05-01T14:28:51.746Z,15.91
2023-05-01T14:30:56.449Z,15.89
2023-05-01T14:33:04.197Z,15.88
2023-05-01T14:35:11.846Z,15.74
2023-05-01T14:37:17.180Z,15.61
2023-05-01T14:39:22.048Z,15.59
2023-05-01T14:41:26.787Z,15.49
2023-05-01T14:43:31.702Z,15.54
2023-05-01T14:45:38.776Z,15.42
2023-05-01T14:47:44.103Z,15.39
2023-05-01T14:49:53.929Z,15.20
2023-05-01T14:51:58.691Z,15.08
2023-05-01T14:54:03.761Z,15.02
2023-05-01T14:56:08.924Z,15.01
2023-05-01T14:58:13.688Z,14.92
2023-05-01T15:00:19.172Z,14.99
2023-05-01T15:02:23.934Z,15.01
2023-05-01T15:04:28.984Z,15.17
2023-05-01T15:06:36.470Z,15.15
2023-05-01T15:08:41.336Z,15.19
2023-05-01T15:10:46.276Z,15.15
2023-05-01T15:12:54.570Z,15.08
2023-05-01T15:14:59.382Z,15.05
2023-05-01T15:17:04.211Z,15.07
2023-05-01T15:19:08.889Z,15.03
2023-05-01T15:21:13.554Z,15.13
2023-05-01T15:23:20.814Z,15.06
2023-05-01T15:25:25.425Z,15.15
2023-05-01T15:27:30.169Z,15.25
2023-05-01T15:29:34.946Z,15.26
2023-05-01T15:31:41.920Z,15.42
2023-05-01T15:33:46.880Z,15.54
2023-05-01T15:35:52.929Z,15.44
2023-05-01T15:37:57.840Z,15.44
2023-05-01T15:40:05.679Z,15.58
2023-05-01T15:42:10.323Z,15.63
2023-05-01T15:44:15.233Z,15.53
2023-05-01T15:46:20.122Z,15.66
2023-05-01T15:48:24.887Z,15.79
2023-05-01T15:50:29.911Z,15.74
2023-05-01T15:52:35.177Z,15.73
2023-05-01T15:54:42.229Z,15.63
2023-05-01T15:56:49.467Z,15.52
2023-05-01T15:58:54.095Z,15.46
2023-05-01T16:00:58.769Z,15.47
2023-05-01T16:03:04.704Z,15.41
2023-05-01T16:05:10.252Z,15.56
2023-05-01T16:07:15.576Z,15.76
2023-05-01T16:09:20.375Z,15.93
2023-05-01T16:11:25.433Z,16.08
2023-05-01T16:13:32.737Z,16.20
2023-05-01T16:15:37.406Z,16.15
2023-05-01T16:17:45.606Z,16.00
2023-05-01T16:19:52.570Z,15.89
2023-05-01T16:21:57.245Z,15.53
2023-05-01T16:24:04.152Z,15.53
2023-05-01T16:26:09.109Z,15.59
2023-05-01T16:28:14.346Z,15.60
2023-05-01T16:30:24.731Z,15.43
2023-05-01T16:32:29.539Z,15.41
2023-05-01T16:34:34.336Z,15.34
2023-05-01T16:36:42.680Z,15.38
2023-05-01T16:38:47.981Z,15.31
2023-05-01T16:40:52.649Z,15.39
2023-05-01T16:43:01.011Z,15.48
2023-05-01T16:45:06.616Z,15.50
2023-05-01T16:47:16.798Z,15.52
2023-05-01T16:49:21.407Z,15.50
2023-05-01T16:51:26.543Z,15.52
2023-05-01T16:53:32.315Z,15.28
2023-05-01T16:55:36.943Z,15.40
2023-05-01T16:57:43.719Z,15.39
2023-05-01T16:59:49.116Z,15.36
2023-05-01T17:01:54.047Z,15.38
2023-05-01T17:04:01.586Z,15.40
2023-05-01T17:06:09.187Z,15.39
2023-05-01T17:08:14.052Z,15.38
2023-05-01T17:10:18.778Z,15.20
2023-05-01T17:12:23.796Z,15.29
2023-05-01T17:14:29.005Z,15.25
2023-05-01T17:16:33.780Z,15.20
2023-05-01T17:18:41.448Z,15.16
2023-05-01T17:20:48.887Z,15.22
2023-05-01T17:22:53.701Z,15.19
2023-05-01T17:25:02.392Z,15.15
2023-05-01T17:27:07.911Z,15.19
2023-05-01T17:29:12.525Z,15.11
2023-05-01T17:31:18.793Z,15.09
2023-05-01T17:33:25.161Z,14.95
2023-05-01T17:35:29.861Z,14.94
2023-05-01T17:37:39.979Z,14.85
2023-05-01T17:39:44.821Z,14.91
2023-05-01T17:41:49.468Z,14.91
2023-05-01T17:43:55.382Z,14.80
2023-05-01T17:46:00.115Z,14.77
2023-05-01T17:48:04.766Z,14.75
2023-05-01T17:50:10.202Z,14.61
2023-05-01T17:52:15.218Z,14.64
2023-05-01T17:54:22.592Z,14.47
2023-05-01T17:56:28.455Z,14.46
2023-05-01T17:58:33.307Z,14.44
2023-05-01T18:00:38.027Z,14.39
2023-05-01T18:02:45.187Z,14.33
2023-05-01T18:04:51.229Z,14.31
2023-05-01T18:06:56.557Z,14.14
2023-05-01T18:09:01.501Z,14.17
2023-05-01T18:11:08.960Z,14.22
2023-05-01T18:13:13.576Z,14.27
2023-05-01T18:15:22.570Z,14.27
2023-05-01T18:17:28.051Z,14.22
2023-05-01T18:19:32.735Z,14.18
2023-05-01T18:21:37.357Z,14.19
2023-05-01T18:23:42.033Z,14.18
2023-05-01T18:25:46.679Z,14.13
2023-05-01T18:27:55.311Z,14.13
2023-05-01T18:30:00.172Z,14.17
2023-05-01T18:32:05.223Z,14.14
2023-05-01T18:34:10.387Z,14.12
2023-05-01T18:36:14.970Z,14.13
2023-05-01T18:38:19.646Z,14.11
2023-05-01T18:40:24.586Z,14.11
2023-05-01T18:42:29.239Z,14.08
2023-05-01T18:44:36.486Z,14.03
2023-05-01T18:46:41.576Z,14.02
2023-05-01T18:48:46.460Z,13.98
2023-05-01T18:51:06.724Z,13.93
2023-05-01T18:53:12.929Z,13.90
2023-05-01T18:55:17.547Z,13.87
2023-05-01T18:57:22.756Z,13.71
2023-05-01T18:59:31.134Z,13.65
2023-05-01T19:01:38.994Z,13.62
2023-05-01T19:03:43.616Z,13.57
2023-05-01T19:05:48.577Z,13.56
2023-05-01T19:07:55.414Z,13.55
2023-05-01T19:10:00.279Z,13.53
2023-05-01T19:12:05.318Z,13.54
2023-05-01T19:14:09.958Z,13.55
2023-05-01T19:16:14.730Z,13.54
2023-05-01T19:18:22.359Z,13.34
2023-05-01T19:20:27.145Z,13.35
2023-05-01T19:22:31.793Z,13.38
2023-05-01T19:24:36.516Z,13.41
2023-05-01T19:26:41.151Z,13.41
2023-05-01T19:28:45.787Z,13.40
2023-05-01T19:30:50.495Z,13.38
2023-05-01T19:32:55.173Z,13.29
2023-05-01T19:35:02.440Z,13.29
2023-05-01T19:37:07.236Z,13.27
2023-05-01T19:39:12.868Z,13.24
2023-05-01T19:41:18.011Z,13.23
2023-05-01T19:43:22.666Z,13.23
2023-05-01T19:45:27.369Z,13.22
2023-05-01T19:47:32.128Z,13.22
2023-05-01T19:49:36.980Z,13.18
2023-05-01T19:51:44.490Z,13.16
2023-05-01T19:53:49.186Z,13.12
2023-05-01T19:55:53.832Z,13.09
2023-05-01T19:57:58.423Z,12.99
2023-05-01T20:00:03.264Z,12.96
2023-05-01T20:02:14.754Z,12.95
2023-05-01T20:04:19.430Z,12.94
2023-05-01T20:06:24.387Z,12.96
2023-05-01T20:08:31.601Z,12.93
2023-05-01T20:10:36.600Z,12.90
2023-05-01T20:12:42.269Z,12.89
2023-05-01T20:14:46.978Z,12.90
2023-05-01T20:16:53.281Z,12.81
2023-05-01T20:18:58.034Z,12.77
2023-05-01T20:21:02.902Z,12.72
2023-05-01T20:23:13.884Z,12.72
2023-05-01T20:25:21.201Z,12.67
2023-05-01T20:27:26.419Z,12.61
2023-05-01T20:29:31.025Z,12.60
2023-05-01T20:31:36.276Z,12.56
2023-05-01T20:33:40.979Z,12.50
2023-05-01T20:35:45.596Z,12.45
2023-05-01T20:37:50.313Z,12.42
2023-05-01T20:39:54.971Z,12.39
2023-05-01T20:42:02.242Z,12.37
2023-05-01T20:44:07.106Z,12.33
2023-05-01T20:46:11.751Z,12.31
2023-05-01T20:48:16.449Z,12.31
2023-05-01T20:50:21.115Z,12.29
2023-05-01T20:52:25.824Z,12.29
2023-05-01T20:54:32.648Z,12.28
2023-05-01T20:56:37.374Z,12.25
2023-05-01T20:58:44.572Z,12.23
2023-05-01T21:00:49.194Z,12.22
2023-05-01T21:02:54.187Z,12.24
2023-05-01T21:04:58.909Z,12.26
2023-05-01T21:07:03.547Z,12.29
2023-05-01T21:09:11.304Z,12.29
2023-05-01T21:11:15.949Z,12.30
2023-05-01T21:13:21.370Z,12.29
2023-05-01T21:15:28.836Z,12.27
2023-05-01T21:17:35.003Z,12.26
2023-05-01T21:19:44.463Z,12.24
2023-05-01T21:21:49.230Z,12.21
2023-05-01T21:23:54.222Z,12.20
2023-05-01T21:25:59.345Z,12.19
2023-05-01T21:28:06.228Z,12.18
2023-05-01T21:30:11.703Z,12.17
2023-05-01T21:32:19.338Z,12.13
2023-05-01T21:34:23.985Z,12.10
2023-05-01T21:36:28.744Z,12.04
2023-05-01T21:38:33.452Z,11.97
2023-05-01T21:40:39.553Z,11.95
2023-05-01T21:42:44.175Z,11.93
2023-05-01T21:44:48.889Z,11.96
2023-05-01T21:46:55.756Z,11.95
2023-05-01T21:49:03.201Z,11.97
2023-05-01T21:51:08.119Z,11.97
2023-05-01T21:53:12.791Z,11.96
2023-05-01T21:55:20.179Z,11.96
2023-05-01T21:57:24.838Z,11.96
2023-05-01T21:59:30.822Z,11.97
2023-05-01T22:01:35.578Z,11.97
2023-05-01T22:03:42.519Z,11.97
2023-05-01T22:05:49.950Z,11.98
2023-05-01T22:07:55.350Z,12.00
2023-05-01T22:10:00.349Z,12.03
2023-05-01T22:12:05.358Z,12.05
2023-05-01T22:14:09.983Z,12.05
2023-05-01T22:16:15.599Z,12.07
2023-05-01T22:18:20.334Z,12.08
2023-05-01T22:20:25.080Z,12.08
2023-05-01T22:22:32.338Z,12.05
2023-05-01T22:24:37.093Z,11.95
2023-05-01T22:26:41.919Z,11.90
2023-05-01T22:28:46.753Z,11.90
2023-05-01T22:30:51.497Z,11.91
2023-05-01T22:32:56.233Z,11.92
2023-05-01T22:35:00.978Z,11.93
2023-05-01T22:37:05.576Z,11.92
2023-05-01T22:39:12.834Z,11.91
2023-05-01T22:41:17.994Z,11.89
2023-05-01T22:43:23.781Z,11.86
2023-05-01T22:45:28.397Z,11.79
2023-05-01T22:47:33.088Z,11.77
2023-05-01T22:49:37.816Z,11.78
2023-05-01T22:51:42.473Z,11.79
2023-05-01T22:53:47.065Z,11.77
2023-05-01T22:55:54.468Z,11.74
2023-05-01T22:57:59.055Z,11.71
2023-05-01T23:00:03.969Z,11.69
2023-05-01T23:02:08.929Z,11.68
2023-05-01T23:04:14.394Z,11.67
2023-05-01T23:06:19.349Z,11.68
2023-05-01T23:08:24.198Z,11.61
2023-05-01T23:10:31.141Z,11.57
2023-05-01T23:12:42.819Z,11.52
2023-05-01T23:14:48.344Z,11.51
2023-05-01T23:16:52.948Z,11.50
2023-05-01T23:18:58.421Z,11.47
2023-05-01T23:21:03.524Z,11.45
2023-05-01T23:23:08.590Z,11.43
2023-05-01T23:25:15.443Z,11.43
2023-05-01T23:27:22.653Z,11.41
2023-05-01T23:29:29.959Z,11.34
2023-05-01T23:31:34.710Z,11.33
2023-05-01T23:33:39.963Z,11.36
2023-05-01T23:35:44.551Z,11.33
2023-05-01T23:37:49.517Z,11.33
2023-05-01T23:39:54.286Z,11.30
2023-05-01T23:41:58.861Z,11.28
2023-05-01T23:44:03.475Z,11.27
2023-05-01T23:46:11.365Z,11.24
2023-05-01T23:48:16.151Z,11.22
2023-05-01T23:50:21.610Z,11.18
2023-05-01T23:52:26.272Z,11.17
2023-05-01T23:54:31.722Z,11.15
2023-05-01T23:56:36.325Z,11.13
2023-05-01T23:58:41.039Z,11.12
